sensor_id;sensor_type;location;lat;lon;timestamp;temperature;humidity
13464;DHT22;6804;48.774;9.174;2023-03-01T00:01:47;3.40;99.90
13464;DHT22;6804;48.774;9.174;2023-03-01T00:04:14;3.40;99.90
13464;DHT22;6804;48.774;9.174;2023-03-01T00:06:43;3.40;99.90
13464;DHT22;6804;48.774;9.174;2023-03-01T00:09:17;3.30;99.90
13464;DHT22;6804;48.774;9.174;2023-03-01T00:11:51;3.40;99.90
13464;DHT22;6804;48.774;9.174;2023-03-01T00:14:18;3.40;99.90
13464;DHT22;6804;48.774;9.174;2023-03-01T00:16:48;3.40;99.90
13464;DHT22;6804;48.774;9.174;2023-03-01T00:19:17;3.30;99.90
13464;DHT22;6804;48.774;9.174;2023-03-01T00:21:45;3.30;99.90
13464;DHT22;6804;48.774;9.174;2023-03-01T00:24:13;3.30;99.90
13464;DHT22;6804;48.774;9.174;2023-03-01T00:26:40;3.30;99.90
13464;DHT22;6804;48.774;9.174;2023-03-01T00:29:09;3.30;99.90
13464;DHT22;6804;48.774;9.174;2023-03-01T00:31:36;3.40;99.90
13464;DHT22;6804;48.774;9.174;2023-03-01T00:34:04;3.30;99.90
13464;DHT22;6804;48.774;9.174;2023-03-01T00:36:36;3.30;99.90
13464;DHT22;6804;48.774;9.174;2023-03-01T00:39:05;3.30;99.90
13464;DHT22;6804;48.774;9.174;2023-03-01T00:41:34;3.30;99.90
13464;DHT22;6804;48.774;9.174;2023-03-01T00:44:01;3.20;99.90
13464;DHT22;6804;48.774;9.174;2023-03-01T00:46:30;3.20;99.90
13464;DHT22;6804;48.774;9.174;2023-03-01T00:49:00;3.20;99.90
13464;DHT22;6804;48.774;9.174;2023-03-01T00:51:31;3.10;99.90
13464;DHT22;6804;48.774;9.174;2023-03-01T00:54:01;3.10;99.90
13464;DHT22;6804;48.774;9.174;2023-03-01T00:56:29;3.10;99.90
13464;DHT22;6804;48.774;9.174;2023-03-01T00:58:59;2.90;99.90
13464;DHT22;6804;48.774;9.174;2023-03-01T01:01:33;2.80;99.90
13464;DHT22;6804;48.774;9.174;2023-03-01T01:04:03;2.80;99.90
13464;DHT22;6804;48.774;9.174;2023-03-01T01:06:32;2.80;99.90
13464;DHT22;6804;48.774;9.174;2023-03-01T01:09:00;2.80;99.90
13464;DHT22;6804;48.774;9.174;2023-03-01T01:11:29;2.80;99.90
13464;DHT22;6804;48.774;9.174;2023-03-01T01:13:57;2.90;99.90
13464;DHT22;6804;48.774;9.174;2023-03-01T01:16:28;2.80;99.90
13464;DHT22;6804;48.774;9.174;2023-03-01T01:19:00;2.90;99.90
13464;DHT22;6804;48.774;9.174;2023-03-01T01:21:27;2.80;99.90
13464;DHT22;6804;48.774;9.174;2023-03-01T01:23:57;2.50;99.90
13464;DHT22;6804;48.774;9.174;2023-03-01T01:26:27;2.30;99.90
13464;DHT22;6804;48.774;9.174;2023-03-01T01:28:55;2.30;99.90
13464;DHT22;6804;48.774;9.174;2023-03-01T01:31:22;2.40;99.90
13464;DHT22;6804;48.774;9.174;2023-03-01T01:33:50;2.50;99.90
13464;DHT22;6804;48.774;9.174;2023-03-01T01:36:22;2.60;99.90
13464;DHT22;6804;48.774;9.174;2023-03-01T01:38:51;2.60;99.90
13464;DHT22;6804;48.774;9.174;2023-03-01T01:41:18;2.70;99.90
13464;DHT22;6804;48.774;9.174;2023-03-01T01:46:32;2.80;99.90
13464;DHT22;6804;48.774;9.174;2023-03-01T01:49:03;2.90;99.90
13464;DHT22;6804;48.774;9.174;2023-03-01T01:51:35;2.90;99.90
13464;DHT22;6804;48.774;9.174;2023-03-01T01:54:11;2.90;99.90
13464;DHT22;6804;48.774;9.174;2023-03-01T01:56:40;3.00;99.90
13464;DHT22;6804;48.774;9.174;2023-03-01T01:59:16;3.00;99.90
13464;DHT22;6804;48.774;9.174;2023-03-01T02:01:50;3.10;99.90
13464;DHT22;6804;48.774;9.174;2023-03-01T02:04:18;3.10;99.90
13464;DHT22;6804;48.774;9.174;2023-03-01T02:06:51;3.10;99.90
13464;DHT22;6804;48.774;9.174;2023-03-01T02:09:23;3.10;99.90
13464;DHT22;6804;48.774;9.174;2023-03-01T02:11:51;3.20;99.90
13464;DHT22;6804;48.774;9.174;2023-03-01T02:14:19;3.10;99.90
13464;DHT22;6804;48.774;9.174;2023-03-01T02:16:47;3.10;99.90
13464;DHT22;6804;48.774;9.174;2023-03-01T02:19:26;3.10;99.90
13464;DHT22;6804;48.774;9.174;2023-03-01T02:22:05;3.00;99.90
13464;DHT22;6804;48.774;9.174;2023-03-01T02:24:40;3.00;99.90
13464;DHT22;6804;48.774;9.174;2023-03-01T02:27:11;3.10;99.90
13464;DHT22;6804;48.774;9.174;2023-03-01T02:29:40;3.20;99.90
13464;DHT22;6804;48.774;9.174;2023-03-01T02:32:11;3.20;99.90
13464;DHT22;6804;48.774;9.174;2023-03-01T02:34:38;3.30;99.90
13464;DHT22;6804;48.774;9.174;2023-03-01T02:37:09;3.30;99.90
13464;DHT22;6804;48.774;9.174;2023-03-01T02:39:42;3.40;99.90
13464;DHT22;6804;48.774;9.174;2023-03-01T02:42:12;3.40;99.90
13464;DHT22;6804;48.774;9.174;2023-03-01T02:44:41;3.40;99.90
13464;DHT22;6804;48.774;9.174;2023-03-01T02:47:08;3.40;99.90
13464;DHT22;6804;48.774;9.174;2023-03-01T02:49:36;3.40;99.90
13464;DHT22;6804;48.774;9.174;2023-03-01T02:52:30;3.30;99.90
13464;DHT22;6804;48.774;9.174;2023-03-01T02:55:03;3.20;99.90
13464;DHT22;6804;48.774;9.174;2023-03-01T02:57:32;3.20;99.90
13464;DHT22;6804;48.774;9.174;2023-03-01T03:00:04;3.20;99.90
13464;DHT22;6804;48.774;9.174;2023-03-01T03:02:34;3.20;99.90
13464;DHT22;6804;48.774;9.174;2023-03-01T03:05:08;3.30;99.90
13464;DHT22;6804;48.774;9.174;2023-03-01T03:07:37;3.30;99.90
13464;DHT22;6804;48.774;9.174;2023-03-01T03:10:07;3.30;99.90
13464;DHT22;6804;48.774;9.174;2023-03-01T03:12:34;3.30;99.90
13464;DHT22;6804;48.774;9.174;2023-03-01T03:15:06;3.30;99.90
13464;DHT22;6804;48.774;9.174;2023-03-01T03:17:34;3.40;99.90
13464;DHT22;6804;48.774;9.174;2023-03-01T03:20:05;3.40;99.90
13464;DHT22;6804;48.774;9.174;2023-03-01T03:22:36;3.40;99.90
13464;DHT22;6804;48.774;9.174;2023-03-01T03:25:04;3.40;99.90
13464;DHT22;6804;48.774;9.174;2023-03-01T03:27:34;3.40;99.90
13464;DHT22;6804;48.774;9.174;2023-03-01T03:30:01;3.40;99.90
13464;DHT22;6804;48.774;9.174;2023-03-01T03:32:36;3.10;99.90
13464;DHT22;6804;48.774;9.174;2023-03-01T03:35:06;3.00;99.90
13464;DHT22;6804;48.774;9.174;2023-03-01T03:37:36;2.90;99.90
13464;DHT22;6804;48.774;9.174;2023-03-01T03:40:21;3.00;99.90
13464;DHT22;6804;48.774;9.174;2023-03-01T03:42:48;3.10;99.90
13464;DHT22;6804;48.774;9.174;2023-03-01T03:45:15;3.20;99.90
13464;DHT22;6804;48.774;9.174;2023-03-01T03:47:46;3.20;99.90
13464;DHT22;6804;48.774;9.174;2023-03-01T03:50:17;3.30;99.90
13464;DHT22;6804;48.774;9.174;2023-03-01T03:52:47;3.40;99.90
13464;DHT22;6804;48.774;9.174;2023-03-01T03:55:14;3.40;99.90
13464;DHT22;6804;48.774;9.174;2023-03-01T03:57:46;3.40;99.90
13464;DHT22;6804;48.774;9.174;2023-03-01T04:00:18;3.40;99.90
13464;DHT22;6804;48.774;9.174;2023-03-01T04:02:48;3.50;99.90
13464;DHT22;6804;48.774;9.174;2023-03-01T04:05:17;3.50;99.90
13464;DHT22;6804;48.774;9.174;2023-03-01T04:07:45;3.50;99.90
13464;DHT22;6804;48.774;9.174;2023-03-01T04:10:14;3.50;99.90
13464;DHT22;6804;48.774;9.174;2023-03-01T04:12:42;3.50;99.90
13464;DHT22;6804;48.774;9.174;2023-03-01T04:15:11;3.50;99.90
13464;DHT22;6804;48.774;9.174;2023-03-01T04:17:43;3.50;99.90
13464;DHT22;6804;48.774;9.174;2023-03-01T04:20:13;3.50;99.90
13464;DHT22;6804;48.774;9.174;2023-03-01T04:22:43;3.60;99.90
13464;DHT22;6804;48.774;9.174;2023-03-01T04:25:13;3.60;99.90
13464;DHT22;6804;48.774;9.174;2023-03-01T04:27:41;3.60;99.90
13464;DHT22;6804;48.774;9.174;2023-03-01T04:30:09;3.60;99.90
13464;DHT22;6804;48.774;9.174;2023-03-01T04:32:36;3.60;99.90
13464;DHT22;6804;48.774;9.174;2023-03-01T04:35:06;3.50;99.90
13464;DHT22;6804;48.774;9.174;2023-03-01T04:37:37;3.40;99.90
13464;DHT22;6804;48.774;9.174;2023-03-01T04:40:07;3.40;99.90
13464;DHT22;6804;48.774;9.174;2023-03-01T04:42:41;3.20;99.90
13464;DHT22;6804;48.774;9.174;2023-03-01T04:45:09;2.80;99.90
13464;DHT22;6804;48.774;9.174;2023-03-01T04:47:47;2.80;99.90
13464;DHT22;6804;48.774;9.174;2023-03-01T04:50:18;2.70;99.90
13464;DHT22;6804;48.774;9.174;2023-03-01T04:52:51;2.70;99.90
13464;DHT22;6804;48.774;9.174;2023-03-01T04:55:19;2.70;99.90
13464;DHT22;6804;48.774;9.174;2023-03-01T04:57:46;2.90;99.90
13464;DHT22;6804;48.774;9.174;2023-03-01T05:00:17;3.00;99.90
13464;DHT22;6804;48.774;9.174;2023-03-01T05:02:48;3.10;99.90
13464;DHT22;6804;48.774;9.174;2023-03-01T05:05:20;3.00;99.90
13464;DHT22;6804;48.774;9.174;2023-03-01T05:07:53;2.90;99.90
13464;DHT22;6804;48.774;9.174;2023-03-01T05:10:27;2.60;99.90
13464;DHT22;6804;48.774;9.174;2023-03-01T05:12:56;2.60;99.90
13464;DHT22;6804;48.774;9.174;2023-03-01T05:15:27;2.50;99.90
13464;DHT22;6804;48.774;9.174;2023-03-01T05:17:56;2.40;99.90
13464;DHT22;6804;48.774;9.174;2023-03-01T05:20:25;2.50;99.90
13464;DHT22;6804;48.774;9.174;2023-03-01T05:22:56;2.70;99.90
13464;DHT22;6804;48.774;9.174;2023-03-01T05:25:24;2.90;99.90
13464;DHT22;6804;48.774;9.174;2023-03-01T05:27:58;3.00;99.90
13464;DHT22;6804;48.774;9.174;2023-03-01T05:30:30;3.20;99.90
13464;DHT22;6804;48.774;9.174;2023-03-01T05:32:58;3.20;99.90
13464;DHT22;6804;48.774;9.174;2023-03-01T05:35:26;3.00;99.90
13464;DHT22;6804;48.774;9.174;2023-03-01T05:37:59;3.10;99.90
13464;DHT22;6804;48.774;9.174;2023-03-01T05:40:27;3.20;99.90
13464;DHT22;6804;48.774;9.174;2023-03-01T05:42:57;3.30;99.90
13464;DHT22;6804;48.774;9.174;2023-03-01T05:45:26;3.30;99.90
13464;DHT22;6804;48.774;9.174;2023-03-01T05:47:58;3.40;99.90
13464;DHT22;6804;48.774;9.174;2023-03-01T05:50:29;3.40;99.90
13464;DHT22;6804;48.774;9.174;2023-03-01T05:53:04;3.40;99.90
13464;DHT22;6804;48.774;9.174;2023-03-01T05:55:32;3.40;99.90
13464;DHT22;6804;48.774;9.174;2023-03-01T05:58:00;3.40;99.90
13464;DHT22;6804;48.774;9.174;2023-03-01T06:00:29;3.50;99.90
13464;DHT22;6804;48.774;9.174;2023-03-01T06:02:58;3.50;99.90
13464;DHT22;6804;48.774;9.174;2023-03-01T06:05:26;3.50;99.90
13464;DHT22;6804;48.774;9.174;2023-03-01T06:07:54;3.60;99.90
13464;DHT22;6804;48.774;9.174;2023-03-01T06:10:27;3.50;99.90
13464;DHT22;6804;48.774;9.174;2023-03-01T06:12:55;3.60;99.90
13464;DHT22;6804;48.774;9.174;2023-03-01T06:15:26;3.60;99.90
13464;DHT22;6804;48.774;9.174;2023-03-01T06:17:58;3.70;99.90
13464;DHT22;6804;48.774;9.174;2023-03-01T06:20:27;3.70;99.90
13464;DHT22;6804;48.774;9.174;2023-03-01T06:22:56;3.70;99.90
13464;DHT22;6804;48.774;9.174;2023-03-01T06:25:28;3.80;99.90
13464;DHT22;6804;48.774;9.174;2023-03-01T06:27:55;3.80;99.90
13464;DHT22;6804;48.774;9.174;2023-03-01T06:30:26;3.70;99.90
13464;DHT22;6804;48.774;9.174;2023-03-01T06:32:53;3.70;99.90
13464;DHT22;6804;48.774;9.174;2023-03-01T06:35:27;3.70;99.90
13464;DHT22;6804;48.774;9.174;2023-03-01T06:37:58;3.70;99.90
13464;DHT22;6804;48.774;9.174;2023-03-01T06:40:28;3.70;99.90
13464;DHT22;6804;48.774;9.174;2023-03-01T06:42:57;3.70;99.90
13464;DHT22;6804;48.774;9.174;2023-03-01T06:45:28;3.70;99.90
13464;DHT22;6804;48.774;9.174;2023-03-01T06:48:02;3.70;99.90
13464;DHT22;6804;48.774;9.174;2023-03-01T06:50:33;3.70;99.90
13464;DHT22;6804;48.774;9.174;2023-03-01T06:53:01;3.70;99.90
13464;DHT22;6804;48.774;9.174;2023-03-01T06:55:30;3.70;99.90
13464;DHT22;6804;48.774;9.174;2023-03-01T06:58:01;3.50;99.90
13464;DHT22;6804;48.774;9.174;2023-03-01T07:00:30;3.50;99.90
13464;DHT22;6804;48.774;9.174;2023-03-01T07:03:01;3.50;99.90
13464;DHT22;6804;48.774;9.174;2023-03-01T07:05:33;3.60;99.90
13464;DHT22;6804;48.774;9.174;2023-03-01T07:08:04;3.70;99.90
13464;DHT22;6804;48.774;9.174;2023-03-01T07:10:33;3.60;99.90
13464;DHT22;6804;48.774;9.174;2023-03-01T07:13:01;3.60;99.90
13464;DHT22;6804;48.774;9.174;2023-03-01T07:15:31;3.70;99.90
13464;DHT22;6804;48.774;9.174;2023-03-01T07:18:02;3.80;99.90
13464;DHT22;6804;48.774;9.174;2023-03-01T07:20:31;3.90;99.90
13464;DHT22;6804;48.774;9.174;2023-03-01T07:23:00;4.00;99.90
13464;DHT22;6804;48.774;9.174;2023-03-01T07:25:28;4.00;99.90
13464;DHT22;6804;48.774;9.174;2023-03-01T07:28:02;3.90;99.90
13464;DHT22;6804;48.774;9.174;2023-03-01T07:30:30;3.80;99.90
13464;DHT22;6804;48.774;9.174;2023-03-01T07:32:58;3.50;99.90
13464;DHT22;6804;48.774;9.174;2023-03-01T07:35:27;3.40;99.90
13464;DHT22;6804;48.774;9.174;2023-03-01T07:37:54;3.30;99.90
13464;DHT22;6804;48.774;9.174;2023-03-01T07:40:22;3.50;99.90
13464;DHT22;6804;48.774;9.174;2023-03-01T07:42:49;3.60;99.90
13464;DHT22;6804;48.774;9.174;2023-03-01T07:45:25;3.70;99.90
13464;DHT22;6804;48.774;9.174;2023-03-01T07:47:53;3.80;99.90
13464;DHT22;6804;48.774;9.174;2023-03-01T07:50:21;3.90;99.90
13464;DHT22;6804;48.774;9.174;2023-03-01T07:52:49;3.80;99.90
13464;DHT22;6804;48.774;9.174;2023-03-01T07:55:23;3.70;99.90
13464;DHT22;6804;48.774;9.174;2023-03-01T07:57:50;3.60;99.90
13464;DHT22;6804;48.774;9.174;2023-03-01T08:00:19;3.60;99.90
13464;DHT22;6804;48.774;9.174;2023-03-01T08:02:53;3.80;99.90
13464;DHT22;6804;48.774;9.174;2023-03-01T08:05:23;4.00;99.90
13464;DHT22;6804;48.774;9.174;2023-03-01T08:07:54;4.10;99.90
13464;DHT22;6804;48.774;9.174;2023-03-01T08:10:21;4.40;99.90
13464;DHT22;6804;48.774;9.174;2023-03-01T08:12:51;4.70;99.90
13464;DHT22;6804;48.774;9.174;2023-03-01T08:15:25;4.70;99.90
13464;DHT22;6804;48.774;9.174;2023-03-01T08:17:56;4.60;99.90
13464;DHT22;6804;48.774;9.174;2023-03-01T08:20:24;4.70;99.90
13464;DHT22;6804;48.774;9.174;2023-03-01T08:22:54;4.60;99.90
13464;DHT22;6804;48.774;9.174;2023-03-01T08:25:24;4.80;99.90
13464;DHT22;6804;48.774;9.174;2023-03-01T08:27:55;4.80;99.90
13464;DHT22;6804;48.774;9.174;2023-03-01T08:30:22;5.00;99.90
13464;DHT22;6804;48.774;9.174;2023-03-01T08:32:50;5.10;99.90
13464;DHT22;6804;48.774;9.174;2023-03-01T08:35:23;5.40;99.90
13464;DHT22;6804;48.774;9.174;2023-03-01T08:37:52;5.60;99.90
13464;DHT22;6804;48.774;9.174;2023-03-01T08:40:20;6.00;99.90
13464;DHT22;6804;48.774;9.174;2023-03-01T08:42:47;5.90;99.90
13464;DHT22;6804;48.774;9.174;2023-03-01T08:45:20;6.00;99.90
13464;DHT22;6804;48.774;9.174;2023-03-01T08:47:50;6.20;99.90
13464;DHT22;6804;48.774;9.174;2023-03-01T08:50:19;6.30;99.90
13464;DHT22;6804;48.774;9.174;2023-03-01T08:52:48;6.10;99.90
13464;DHT22;6804;48.774;9.174;2023-03-01T08:55:17;6.20;99.90
13464;DHT22;6804;48.774;9.174;2023-03-01T08:57:47;6.00;99.90
13464;DHT22;6804;48.774;9.174;2023-03-01T09:00:15;6.20;99.90
13464;DHT22;6804;48.774;9.174;2023-03-01T09:05:26;6.60;99.90
13464;DHT22;6804;48.774;9.174;2023-03-01T09:07:57;6.70;99.90
13464;DHT22;6804;48.774;9.174;2023-03-01T09:10:24;6.80;99.90
13464;DHT22;6804;48.774;9.174;2023-03-01T09:12:54;6.90;99.90
13464;DHT22;6804;48.774;9.174;2023-03-01T09:15:22;6.90;99.70
13464;DHT22;6804;48.774;9.174;2023-03-01T09:17:54;6.90;99.90
13464;DHT22;6804;48.774;9.174;2023-03-01T09:20:24;7.20;99.90
13464;DHT22;6804;48.774;9.174;2023-03-01T09:22:57;7.40;99.30
13464;DHT22;6804;48.774;9.174;2023-03-01T09:25:25;7.50;99.50
13464;DHT22;6804;48.774;9.174;2023-03-01T09:27:55;7.40;98.40
13464;DHT22;6804;48.774;9.174;2023-03-01T09:30:23;7.50;98.60
13464;DHT22;6804;48.774;9.174;2023-03-01T09:33:02;7.70;99.00
13464;DHT22;6804;48.774;9.174;2023-03-01T09:35:35;7.70;97.80
13464;DHT22;6804;48.774;9.174;2023-03-01T09:38:06;7.60;98.20
13464;DHT22;6804;48.774;9.174;2023-03-01T09:40:33;7.70;98.80
13464;DHT22;6804;48.774;9.174;2023-03-01T09:43:08;7.80;99.20
13464;DHT22;6804;48.774;9.174;2023-03-01T09:45:45;8.00;98.40
13464;DHT22;6804;48.774;9.174;2023-03-01T09:48:18;8.10;98.00
13464;DHT22;6804;48.774;9.174;2023-03-01T09:50:48;7.80;97.30
13464;DHT22;6804;48.774;9.174;2023-03-01T09:53:19;7.60;97.80
13464;DHT22;6804;48.774;9.174;2023-03-01T09:55:55;7.20;98.40
13464;DHT22;6804;48.774;9.174;2023-03-01T09:58:44;7.30;99.30
13464;DHT22;6804;48.774;9.174;2023-03-01T10:01:38;7.50;98.20
13464;DHT22;6804;48.774;9.174;2023-03-01T10:04:28;7.80;98.20
13464;DHT22;6804;48.774;9.174;2023-03-01T10:07:16;7.50;98.10
13464;DHT22;6804;48.774;9.174;2023-03-01T10:09:47;6.60;98.10
13464;DHT22;6804;48.774;9.174;2023-03-01T10:12:18;5.80;99.30
13464;DHT22;6804;48.774;9.174;2023-03-01T10:15:00;5.90;99.90
13464;DHT22;6804;48.774;9.174;2023-03-01T10:17:34;6.50;99.90
13464;DHT22;6804;48.774;9.174;2023-03-01T10:20:17;6.30;98.90
13464;DHT22;6804;48.774;9.174;2023-03-01T10:22:48;6.00;99.70
13464;DHT22;6804;48.774;9.174;2023-03-01T10:25:51;6.00;99.60
13464;DHT22;6804;48.774;9.174;2023-03-01T10:28:25;6.20;99.60
13464;DHT22;6804;48.774;9.174;2023-03-01T10:30:57;6.40;99.40
13464;DHT22;6804;48.774;9.174;2023-03-01T10:33:35;6.60;99.00
13464;DHT22;6804;48.774;9.174;2023-03-01T10:36:09;6.60;99.00
13464;DHT22;6804;48.774;9.174;2023-03-01T10:39:02;7.00;99.90
13464;DHT22;6804;48.774;9.174;2023-03-01T10:44:38;7.30;97.80
13464;DHT22;6804;48.774;9.174;2023-03-01T10:47:18;7.30;98.80
13464;DHT22;6804;48.774;9.174;2023-03-01T10:50:17;7.60;98.50
13464;DHT22;6804;48.774;9.174;2023-03-01T10:52:57;8.00;98.10
13464;DHT22;6804;48.774;9.174;2023-03-01T10:55:40;8.30;97.80
13464;DHT22;6804;48.774;9.174;2023-03-01T10:58:19;8.60;97.60
13464;DHT22;6804;48.774;9.174;2023-03-01T11:00:49;8.50;96.90
13464;DHT22;6804;48.774;9.174;2023-03-01T11:03:22;8.80;97.20
13464;DHT22;6804;48.774;9.174;2023-03-01T11:08:53;8.60;96.40
13464;DHT22;6804;48.774;9.174;2023-03-01T11:11:32;8.70;96.80
13464;DHT22;6804;48.774;9.174;2023-03-01T11:14:13;7.70;96.30
13464;DHT22;6804;48.774;9.174;2023-03-01T11:16:59;7.00;97.30
13464;DHT22;6804;48.774;9.174;2023-03-01T11:19:37;6.80;98.30
13464;DHT22;6804;48.774;9.174;2023-03-01T11:22:12;6.80;98.40
13464;DHT22;6804;48.774;9.174;2023-03-01T11:24:47;7.10;98.70
13464;DHT22;6804;48.774;9.174;2023-03-01T11:27:18;7.40;98.60
13464;DHT22;6804;48.774;9.174;2023-03-01T11:29:55;7.80;97.80
13464;DHT22;6804;48.774;9.174;2023-03-01T11:32:29;7.90;97.90
13464;DHT22;6804;48.774;9.174;2023-03-01T11:35:02;8.20;98.00
13464;DHT22;6804;48.774;9.174;2023-03-01T11:37:40;8.60;97.10
13464;DHT22;6804;48.774;9.174;2023-03-01T11:40:15;8.40;96.20
13464;DHT22;6804;48.774;9.174;2023-03-01T11:42:53;8.00;96.80
13464;DHT22;6804;48.774;9.174;2023-03-01T11:45:39;8.20;98.00
13464;DHT22;6804;48.774;9.174;2023-03-01T11:48:34;8.40;97.20
13464;DHT22;6804;48.774;9.174;2023-03-01T11:51:09;8.80;96.80
13464;DHT22;6804;48.774;9.174;2023-03-01T11:54:03;8.70;96.10
13464;DHT22;6804;48.774;9.174;2023-03-01T11:56:38;8.80;97.20
13464;DHT22;6804;48.774;9.174;2023-03-01T12:02:36;9.30;95.90
13464;DHT22;6804;48.774;9.174;2023-03-01T12:05:24;9.50;96.30
13464;DHT22;6804;48.774;9.174;2023-03-01T12:08:11;9.40;95.00
13464;DHT22;6804;48.774;9.174;2023-03-01T12:10:48;9.10;95.50
13464;DHT22;6804;48.774;9.174;2023-03-01T12:16:40;9.50;96.00
13464;DHT22;6804;48.774;9.174;2023-03-01T12:19:26;9.80;96.10
13464;DHT22;6804;48.774;9.174;2023-03-01T12:22:28;9.50;95.00
13464;DHT22;6804;48.774;9.174;2023-03-01T12:25:19;9.40;96.20
13464;DHT22;6804;48.774;9.174;2023-03-01T12:28:09;9.50;95.10
13464;DHT22;6804;48.774;9.174;2023-03-01T12:31:02;9.70;95.70
13464;DHT22;6804;48.774;9.174;2023-03-01T12:33:45;10.00;94.40
13464;DHT22;6804;48.774;9.174;2023-03-01T12:36:39;10.00;94.90
13464;DHT22;6804;48.774;9.174;2023-03-01T12:39:36;10.20;93.70
13464;DHT22;6804;48.774;9.174;2023-03-01T12:42:19;10.20;94.50
13464;DHT22;6804;48.774;9.174;2023-03-01T12:45:02;10.30;94.20
13464;DHT22;6804;48.774;9.174;2023-03-01T12:47:54;10.50;94.40
13464;DHT22;6804;48.774;9.174;2023-03-01T12:50:33;10.00;93.60
13464;DHT22;6804;48.774;9.174;2023-03-01T12:53:22;10.10;94.60
13464;DHT22;6804;48.774;9.174;2023-03-01T12:55:53;10.30;93.80
13464;DHT22;6804;48.774;9.174;2023-03-01T12:58:31;9.90;94.30
13464;DHT22;6804;48.774;9.174;2023-03-01T13:01:21;9.90;94.50
13464;DHT22;6804;48.774;9.174;2023-03-01T13:03:59;10.20;94.60
13464;DHT22;6804;48.774;9.174;2023-03-01T13:06:34;10.30;93.40
13464;DHT22;6804;48.774;9.174;2023-03-01T13:09:16;10.30;94.10
13464;DHT22;6804;48.774;9.174;2023-03-01T13:11:47;10.40;94.20
13464;DHT22;6804;48.774;9.174;2023-03-01T13:14:44;10.60;94.30
13464;DHT22;6804;48.774;9.174;2023-03-01T13:17:31;10.80;93.60
13464;DHT22;6804;48.774;9.174;2023-03-01T13:20:13;10.50;92.70
13464;DHT22;6804;48.774;9.174;2023-03-01T13:22:41;9.90;94.00
13464;DHT22;6804;48.774;9.174;2023-03-01T13:25:16;9.60;94.50
13464;DHT22;6804;48.774;9.174;2023-03-01T13:27:44;9.30;94.80
13464;DHT22;6804;48.774;9.174;2023-03-01T13:30:40;9.10;95.30
13464;DHT22;6804;48.774;9.174;2023-03-01T13:33:41;9.40;96.10
13464;DHT22;6804;48.774;9.174;2023-03-01T13:36:13;9.60;94.80
13464;DHT22;6804;48.774;9.174;2023-03-01T13:39:02;9.90;95.70
13464;DHT22;6804;48.774;9.174;2023-03-01T13:41:54;10.20;94.70
13464;DHT22;6804;48.774;9.174;2023-03-01T13:44:26;10.40;93.90
13464;DHT22;6804;48.774;9.174;2023-03-01T13:47:07;10.60;93.50
13464;DHT22;6804;48.774;9.174;2023-03-01T13:49:43;10.70;93.60
13464;DHT22;6804;48.774;9.174;2023-03-01T13:52:36;10.80;93.50
13464;DHT22;6804;48.774;9.174;2023-03-01T13:55:14;10.80;93.60
13464;DHT22;6804;48.774;9.174;2023-03-01T13:57:48;10.90;93.00
13464;DHT22;6804;48.774;9.174;2023-03-01T14:00:29;10.80;92.80
13464;DHT22;6804;48.774;9.174;2023-03-01T14:03:08;10.70;93.10
13464;DHT22;6804;48.774;9.174;2023-03-01T14:05:58;10.70;93.80
13464;DHT22;6804;48.774;9.174;2023-03-01T14:08:31;10.70;93.10
13464;DHT22;6804;48.774;9.174;2023-03-01T14:11:35;10.60;93.50
13464;DHT22;6804;48.774;9.174;2023-03-01T14:14:42;10.50;93.80
13464;DHT22;6804;48.774;9.174;2023-03-01T14:17:26;10.50;93.80
13464;DHT22;6804;48.774;9.174;2023-03-01T14:20:02;10.30;94.00
13464;DHT22;6804;48.774;9.174;2023-03-01T14:22:37;10.30;94.00
13464;DHT22;6804;48.774;9.174;2023-03-01T14:25:35;10.40;93.60
13464;DHT22;6804;48.774;9.174;2023-03-01T14:28:12;10.30;93.70
13464;DHT22;6804;48.774;9.174;2023-03-01T14:30:45;10.30;94.00
13464;DHT22;6804;48.774;9.174;2023-03-01T14:33:22;9.90;94.80
13464;DHT22;6804;48.774;9.174;2023-03-01T14:35:55;9.90;95.10
13464;DHT22;6804;48.774;9.174;2023-03-01T14:38:32;9.90;95.00
13464;DHT22;6804;48.774;9.174;2023-03-01T14:41:07;9.90;95.30
13464;DHT22;6804;48.774;9.174;2023-03-01T14:43:35;10.00;94.70
13464;DHT22;6804;48.774;9.174;2023-03-01T14:46:05;10.10;94.50
13464;DHT22;6804;48.774;9.174;2023-03-01T14:48:35;10.00;94.30
13464;DHT22;6804;48.774;9.174;2023-03-01T14:51:06;10.00;94.60
13464;DHT22;6804;48.774;9.174;2023-03-01T14:53:33;9.90;94.80
13464;DHT22;6804;48.774;9.174;2023-03-01T14:56:04;10.00;94.60
13464;DHT22;6804;48.774;9.174;2023-03-01T14:58:34;10.00;94.70
13464;DHT22;6804;48.774;9.174;2023-03-01T15:01:07;9.90;95.20
13464;DHT22;6804;48.774;9.174;2023-03-01T15:03:43;9.90;95.50
13464;DHT22;6804;48.774;9.174;2023-03-01T15:06:15;10.00;95.10
13464;DHT22;6804;48.774;9.174;2023-03-01T15:08:47;10.10;94.80
13464;DHT22;6804;48.774;9.174;2023-03-01T15:11:21;10.10;94.30
13464;DHT22;6804;48.774;9.174;2023-03-01T15:13:56;10.10;94.50
13464;DHT22;6804;48.774;9.174;2023-03-01T15:16:27;9.90;95.10
13464;DHT22;6804;48.774;9.174;2023-03-01T15:19:07;9.90;95.10
13464;DHT22;6804;48.774;9.174;2023-03-01T15:21:36;9.90;95.30
13464;DHT22;6804;48.774;9.174;2023-03-01T15:24:06;9.90;95.50
13464;DHT22;6804;48.774;9.174;2023-03-01T15:26:45;9.90;95.60
13464;DHT22;6804;48.774;9.174;2023-03-01T15:29:18;9.80;95.30
13464;DHT22;6804;48.774;9.174;2023-03-01T15:31:58;9.70;95.40
13464;DHT22;6804;48.774;9.174;2023-03-01T15:34:27;9.70;95.60
13464;DHT22;6804;48.774;9.174;2023-03-01T15:36:56;9.70;95.60
13464;DHT22;6804;48.774;9.174;2023-03-01T15:39:34;9.70;95.60
13464;DHT22;6804;48.774;9.174;2023-03-01T15:42:04;9.70;95.80
13464;DHT22;6804;48.774;9.174;2023-03-01T15:44:34;9.60;95.70
13464;DHT22;6804;48.774;9.174;2023-03-01T15:47:21;9.70;95.60
13464;DHT22;6804;48.774;9.174;2023-03-01T15:50:00;9.60;95.70
13464;DHT22;6804;48.774;9.174;2023-03-01T15:52:31;9.50;95.80
13464;DHT22;6804;48.774;9.174;2023-03-01T15:55:12;9.50;95.60
13464;DHT22;6804;48.774;9.174;2023-03-01T15:57:47;9.40;95.40
13464;DHT22;6804;48.774;9.174;2023-03-01T16:00:16;9.30;95.80
13464;DHT22;6804;48.774;9.174;2023-03-01T16:02:47;9.40;95.80
13464;DHT22;6804;48.774;9.174;2023-03-01T16:05:22;9.30;95.30
13464;DHT22;6804;48.774;9.174;2023-03-01T16:07:51;9.20;95.20
13464;DHT22;6804;48.774;9.174;2023-03-01T16:10:23;9.10;95.30
13464;DHT22;6804;48.774;9.174;2023-03-01T16:12:57;9.10;95.40
13464;DHT22;6804;48.774;9.174;2023-03-01T16:15:27;9.00;95.50
13464;DHT22;6804;48.774;9.174;2023-03-01T16:17:56;8.90;95.70
13464;DHT22;6804;48.774;9.174;2023-03-01T16:20:28;8.90;95.70
13464;DHT22;6804;48.774;9.174;2023-03-01T16:22:58;8.90;95.50
13464;DHT22;6804;48.774;9.174;2023-03-01T16:25:31;8.90;95.60
13464;DHT22;6804;48.774;9.174;2023-03-01T16:27:59;8.90;95.70
13464;DHT22;6804;48.774;9.174;2023-03-01T16:30:38;9.00;95.70
13464;DHT22;6804;48.774;9.174;2023-03-01T16:33:08;8.90;95.40
13464;DHT22;6804;48.774;9.174;2023-03-01T16:35:39;8.80;95.50
13464;DHT22;6804;48.774;9.174;2023-03-01T16:38:07;8.80;95.70
13464;DHT22;6804;48.774;9.174;2023-03-01T16:40:37;8.80;95.90
13464;DHT22;6804;48.774;9.174;2023-03-01T16:43:05;8.70;96.00
13464;DHT22;6804;48.774;9.174;2023-03-01T16:45:35;8.70;95.90
13464;DHT22;6804;48.774;9.174;2023-03-01T16:48:07;8.80;96.00
13464;DHT22;6804;48.774;9.174;2023-03-01T16:50:38;8.80;95.90
13464;DHT22;6804;48.774;9.174;2023-03-01T16:53:05;8.70;95.90
13464;DHT22;6804;48.774;9.174;2023-03-01T16:55:33;8.70;95.80
13464;DHT22;6804;48.774;9.174;2023-03-01T16:58:00;8.70;95.90